Terminal Aerodrome Forecast
Issued by NWS

Current Version | Previous Version | Text Only | Print | Product List | Glossary On
Versions: 1 2 3 4 5 6 7 8 9 10 11 12 13 14 15 16 17 18 19 20 21
981
FTUS43 KDLH 230822 AAC
TAFHYR
TAF AMD
KHYR 230822Z 2308/2406 VRB03KT P6SM FEW002 BKN200
      TEMPO 2308/2311 2SM BR SCT002
     FM231300 12004KT P6SM SCT250
     FM232300 15006KT P6SM VCSH BKN025 PROB30 2323/2405 5SM TSRA
      BKN015CB=

USA.gov is the U.S. government's official web portal to all federal, state and local government web resources and services.